This is the latest recevied weather packets stored in our database for station/object KELD. If no packets are shown the sender has not sent any weather packets the latest 10 day(s).
| Time | Temp. | Humidity | Pressure | Rain* | Wind** | Luminosity | Snow |
|---|---|---|---|---|---|---|---|
| 1777430008 | 22.78° C | 100% | 1010.5 hPa | - | - | - | - |
| 1777428211 | 22.78° C | 100% | 1010.5 hPa | - | - | - | - |
| 1777427010 | 25° C | 94% | 1010.5 hPa | - | - | - | - |
| 1777422807 | 25.56° C | 88% | 1011.2 hPa | - | - | - | - |
| 1777422213 | 25.56° C | 88% | 1011.2 hPa | - | - | - | - |
| 1777415615 | 27.78° C | 69% | 1010.8 hPa | - | - | - | - |
| 1777412612 | 28.89° C | 70% | 1010.8 hPa | - | - | - | - |
| 1777410809 | 28.89° C | 70% | 1010.8 hPa | - | - | - | - |
| 1777410211 | 28.89° C | 70% | 1010.8 hPa | - | - | - | - |
| 1777409013 | 27.78° C | 74% | 1012.2 hPa | - | - | - | - |
| 1777407937 | 27.78° C | 74% | 1012.2 hPa | - | - | - | - |
| 1777407214 | 27.78° C | 74% | 1012.2 hPa | - | - | - | - |
| 1777405415 | 26.67° C | 74% | 1013.2 hPa | - | - | - | - |
| 1777397614 | 25.56° C | 78% | 1015.6 hPa | - | - | - | - |
| 1777394009 | 25° C | 83% | 1014.9 hPa | - | - | - | - |
| 1777391005 | 23.89° C | 88% | 1015.2 hPa | - | - | - | - |
| 1777387408 | 23.89° C | 88% | 1014.6 hPa | - | - | - | - |
| 1777385611 | 23.89° C | 88% | 1014.6 hPa | - | - | - | - |
| 1777383812 | 22.78° C | 94% | 1014.6 hPa | - | - | - | - |
| 1777381410 | 22.78° C | 94% | 1014.6 hPa | - | - | - | - |
| 1777377813 | 22.78° C | 88% | 1013.9 hPa | - | - | - | - |
| 1777373011 | 22.78° C | 88% | 1012.5 hPa | - | - | - | - |
| 1777372407 | 22.78° C | 88% | 1012.5 hPa | - | - | - | - |
| 1777371810 | 22.78° C | 88% | 1012.5 hPa | - | - | - | - |
| 1777371207 | 22.78° C | 88% | 1012.5 hPa | - | - | - | - |
* Rain since midnight (hover to see other rain measurements)
** Current wind speed in m/s (hover to see current wind gust speed)